createdAt,value
2018-09-03T00:01:05.163Z,4.00
2018-09-03T00:03:36.301Z,3.20
2018-09-03T00:06:06.570Z,2.67
2018-09-03T00:08:38.607Z,3.60
2018-09-03T00:11:12.306Z,4.00
2018-09-03T00:13:45.149Z,2.00
2018-09-03T00:16:16.787Z,4.00
2018-09-03T00:21:21.003Z,4.00
2018-09-03T00:23:52.069Z,4.20
2018-09-03T00:26:24.219Z,4.00
2018-09-03T00:28:57.173Z,4.00
2018-09-03T00:31:33.162Z,4.00
2018-09-03T00:34:08.655Z,4.00
2018-09-03T00:36:44.830Z,4.00
2018-09-03T00:39:20.513Z,4.00
2018-09-03T00:41:56.657Z,4.00
2018-09-03T00:44:32.860Z,5.00
2018-09-03T00:47:08.747Z,4.80
2018-09-03T00:49:41.419Z,4.00
2018-09-03T00:52:12.547Z,5.00
2018-09-03T00:54:43.644Z,4.20
2018-09-03T00:57:14.631Z,5.00
2018-09-03T00:59:44.894Z,5.00
2018-09-03T01:02:16.003Z,5.33
2018-09-03T01:04:46.101Z,5.00
2018-09-03T01:07:16.258Z,5.00
2018-09-03T01:09:47.482Z,5.67
2018-09-03T01:12:19.150Z,5.67
2018-09-03T01:14:50.115Z,5.00
2018-09-03T01:17:22.280Z,5.33
2018-09-03T01:19:53.891Z,6.33
2018-09-03T01:22:25.128Z,5.33
2018-09-03T01:24:56.905Z,5.00
2018-09-03T01:27:28.289Z,5.67
2018-09-03T01:30:01.777Z,5.00
2018-09-03T01:32:32.134Z,7.00
2018-09-03T01:35:03.155Z,6.25
2018-09-03T01:37:33.165Z,6.33
2018-09-03T01:40:04.664Z,6.00
2018-09-03T01:42:35.670Z,6.00
2018-09-03T01:45:08.258Z,6.33
2018-09-03T01:47:39.748Z,7.67
2018-09-03T01:50:09.929Z,6.33
2018-09-03T01:52:40.257Z,6.33
2018-09-03T01:55:10.430Z,6.67
2018-09-03T01:57:41.121Z,6.33
2018-09-03T02:00:13.800Z,7.00
2018-09-03T02:02:45.667Z,5.67
2018-09-03T02:05:15.935Z,7.33
2018-09-03T02:07:47.218Z,5.67
2018-09-03T02:10:19.715Z,6.33
2018-09-03T02:12:50.906Z,7.67
2018-09-03T02:15:25.770Z,5.33
2018-09-03T02:17:55.906Z,7.00
2018-09-03T02:20:26.818Z,7.00
2018-09-03T02:23:04.036Z,5.00
2018-09-03T02:25:38.395Z,6.33
2018-09-03T02:28:11.676Z,5.83
2018-09-03T02:30:42.456Z,5.33
2018-09-03T02:33:16.055Z,5.20
2018-09-03T02:35:47.270Z,6.00
2018-09-03T02:38:18.158Z,6.00
2018-09-03T02:40:47.756Z,5.00
2018-09-03T02:43:18.276Z,5.00
2018-09-03T02:45:48.181Z,6.00
2018-09-03T02:48:19.805Z,5.00
2018-09-03T02:50:49.953Z,7.33
2018-09-03T02:53:21.950Z,6.50
2018-09-03T02:55:52.090Z,7.33
2018-09-03T02:58:22.317Z,6.67
2018-09-03T03:00:52.469Z,6.67
2018-09-03T03:03:21.709Z,8.67
2018-09-03T03:05:50.892Z,7.33
2018-09-03T03:08:21.076Z,8.67
2018-09-03T03:10:52.449Z,7.33
2018-09-03T03:13:24.654Z,8.67
2018-09-03T03:15:56.382Z,9.00
2018-09-03T03:18:27.843Z,9.00
2018-09-03T03:20:59.874Z,7.00
2018-09-03T03:23:31.792Z,6.00
2018-09-03T03:26:04.152Z,5.67
2018-09-03T03:28:35.319Z,9.00
2018-09-03T03:31:05.834Z,8.33
2018-09-03T03:33:37.394Z,7.67
2018-09-03T03:36:07.875Z,9.67
2018-09-03T03:38:37.241Z,7.67
2018-09-03T03:41:08.280Z,6.00
2018-09-03T03:43:37.538Z,7.67
2018-09-03T03:46:08.361Z,7.33
2018-09-03T03:48:38.512Z,6.00
2018-09-03T03:51:08.810Z,7.67
2018-09-03T03:53:38.944Z,7.60
2018-09-03T03:56:09.740Z,6.33
2018-09-03T03:58:40.066Z,6.33
2018-09-03T04:01:10.265Z,7.00
2018-09-03T04:03:40.401Z,6.00
2018-09-03T04:06:13.383Z,7.00
2018-09-03T04:08:43.507Z,6.00
2018-09-03T04:11:13.213Z,6.00
2018-09-03T04:13:43.726Z,6.00
2018-09-03T04:16:13.031Z,9.00
2018-09-03T04:18:42.307Z,7.67
2018-09-03T04:21:12.435Z,6.33
2018-09-03T04:23:43.410Z,7.00
2018-09-03T04:26:13.606Z,6.33
2018-09-03T04:28:42.865Z,7.67
2018-09-03T04:31:13.285Z,9.00
2018-09-03T04:33:43.431Z,7.00
2018-09-03T04:36:13.714Z,6.00
2018-09-03T04:38:43.789Z,6.67
2018-09-03T04:41:14.100Z,6.00
2018-09-03T04:43:44.253Z,7.67
2018-09-03T04:46:15.455Z,7.67
2018-09-03T04:48:44.657Z,7.00
2018-09-03T04:51:17.126Z,7.00
2018-09-03T04:53:46.489Z,7.00
2018-09-03T04:56:18.493Z,6.00
2018-09-03T04:58:49.405Z,6.67
2018-09-03T05:01:19.682Z,7.00
2018-09-03T05:03:52.155Z,7.00
2018-09-03T05:06:24.290Z,6.33
2018-09-03T05:11:33.465Z,10.00
2018-09-03T05:14:03.668Z,8.33
2018-09-03T05:16:33.661Z,9.00
2018-09-03T05:19:05.765Z,8.33
2018-09-03T05:21:37.613Z,8.60
2018-09-03T05:24:07.927Z,8.33
2018-09-03T05:26:37.349Z,9.00
2018-09-03T05:29:07.568Z,9.00
2018-09-03T05:31:37.644Z,8.33
2018-09-03T05:34:08.747Z,10.00
2018-09-03T05:36:38.098Z,9.33
2018-09-03T05:39:12.003Z,7.00
2018-09-03T05:41:41.657Z,10.33
2018-09-03T05:44:11.273Z,9.67
2018-09-03T05:46:41.185Z,10.33
2018-09-03T05:49:10.482Z,10.67
2018-09-03T05:51:39.729Z,9.00
2018-09-03T05:54:10.242Z,7.00
2018-09-03T05:56:39.448Z,9.00
2018-09-03T05:59:08.855Z,7.67
2018-09-03T06:01:40.954Z,9.00
2018-09-03T06:04:10.273Z,9.00
2018-09-03T06:06:40.454Z,10.33
2018-09-03T06:09:12.597Z,9.00
2018-09-03T06:11:43.985Z,10.33
2018-09-03T06:14:15.230Z,9.00
2018-09-03T06:16:45.790Z,9.00
2018-09-03T06:19:16.320Z,10.00
2018-09-03T06:21:45.674Z,9.33
2018-09-03T06:24:16.704Z,10.00
2018-09-03T06:26:46.284Z,9.33
2018-09-03T06:29:18.743Z,10.00
2018-09-03T06:31:49.854Z,8.00
2018-09-03T06:34:20.073Z,9.33
2018-09-03T06:36:49.315Z,10.00
2018-09-03T06:39:22.197Z,10.00
2018-09-03T06:41:51.464Z,10.00
2018-09-03T06:44:22.062Z,12.00
2018-09-03T06:46:51.370Z,10.67
2018-09-03T06:49:22.390Z,10.67
2018-09-03T06:51:52.521Z,11.67
2018-09-03T06:54:22.803Z,9.67
2018-09-03T06:56:52.121Z,10.33
2018-09-03T06:59:21.457Z,9.33
2018-09-03T07:01:52.363Z,10.00
2018-09-03T07:04:22.479Z,9.00
2018-09-03T07:06:52.825Z,9.33
2018-09-03T07:09:22.877Z,10.00
2018-09-03T07:11:53.840Z,7.00
2018-09-03T07:14:24.410Z,10.33
2018-09-03T07:16:54.415Z,9.67
2018-09-03T07:19:24.298Z,10.00
2018-09-03T07:21:54.389Z,11.00
2018-09-03T07:24:23.687Z,9.33
2018-09-03T07:26:54.883Z,10.00
2018-09-03T07:29:24.846Z,10.33
2018-09-03T07:31:55.354Z,10.00
2018-09-03T07:34:25.603Z,9.67
2018-09-03T07:36:55.580Z,8.00
2018-09-03T07:39:24.828Z,10.00
2018-09-03T07:41:58.540Z,10.00
2018-09-03T07:44:29.223Z,9.33
2018-09-03T07:47:01.186Z,9.33
2018-09-03T07:49:32.194Z,11.00
2018-09-03T07:52:01.523Z,10.67
2018-09-03T07:54:32.069Z,11.33
2018-09-03T07:57:01.480Z,10.33
2018-09-03T07:59:30.729Z,11.00
2018-09-03T08:02:00.215Z,12.00
2018-09-03T08:04:30.468Z,11.00
2018-09-03T08:07:00.796Z,9.67
2018-09-03T08:09:30.108Z,10.33
2018-09-03T08:11:59.378Z,11.33
2018-09-03T08:14:30.261Z,11.67
2018-09-03T08:16:59.644Z,10.00
2018-09-03T08:19:29.099Z,11.67
2018-09-03T08:21:58.457Z,8.67
2018-09-03T08:24:28.358Z,8.33
2018-09-03T08:26:58.477Z,11.00
2018-09-03T08:29:29.325Z,10.33
2018-09-03T08:32:01.109Z,10.67
2018-09-03T08:34:32.220Z,9.00
2018-09-03T08:37:02.006Z,10.33
2018-09-03T08:39:31.545Z,11.33
2018-09-03T08:42:00.812Z,9.00
2018-09-03T08:44:30.113Z,10.67
2018-09-03T08:47:02.666Z,10.00
2018-09-03T08:49:32.529Z,12.67
2018-09-03T08:52:02.402Z,9.67
2018-09-03T08:54:32.460Z,9.00
2018-09-03T08:57:01.794Z,12.33
2018-09-03T08:59:32.130Z,10.00
2018-09-03T09:02:01.454Z,10.00
2018-09-03T09:04:31.458Z,10.00
2018-09-03T09:07:01.703Z,10.33
2018-09-03T09:09:31.876Z,10.00
2018-09-03T09:12:01.198Z,9.00
2018-09-03T09:14:30.560Z,11.00
2018-09-03T09:16:59.823Z,9.67
2018-09-03T09:19:29.181Z,9.00
2018-09-03T09:21:59.761Z,10.00
2018-09-03T09:24:30.499Z,10.00
2018-09-03T09:27:00.835Z,11.00
2018-09-03T09:29:30.621Z,9.67
2018-09-03T09:31:59.991Z,10.33
2018-09-03T09:34:29.859Z,9.33
2018-09-03T09:36:59.959Z,10.00
2018-09-03T09:39:33.080Z,11.00
2018-09-03T09:42:05.823Z,9.67
2018-09-03T09:44:36.495Z,11.67
2018-09-03T09:47:05.946Z,10.67
2018-09-03T09:49:35.619Z,10.00
2018-09-03T09:52:04.945Z,9.33
2018-09-03T09:54:34.879Z,10.33
2018-09-03T09:57:04.228Z,9.00
2018-09-03T09:59:33.643Z,10.00
2018-09-03T10:02:03.202Z,9.67
2018-09-03T10:04:32.492Z,9.33
2018-09-03T10:07:01.812Z,10.33
2018-09-03T10:09:31.702Z,10.00
2018-09-03T10:12:01.885Z,9.00
2018-09-03T10:14:31.193Z,9.67
2018-09-03T10:17:01.233Z,10.00
2018-09-03T10:19:30.619Z,10.00
2018-09-03T10:22:00.304Z,9.33
2018-09-03T10:24:31.202Z,10.00
2018-09-03T10:27:05.477Z,10.67
2018-09-03T10:29:36.516Z,10.00
2018-09-03T10:32:17.267Z,10.33
2018-09-03T10:34:47.501Z,10.33
2018-09-03T10:37:16.914Z,10.00
2018-09-03T10:39:51.067Z,10.33
2018-09-03T10:42:26.730Z,9.33
2018-09-03T10:44:56.057Z,10.00
2018-09-03T10:47:28.527Z,10.67
2018-09-03T10:49:57.800Z,10.67
2018-09-03T10:52:27.140Z,10.00
2018-09-03T10:54:57.388Z,10.00
2018-09-03T10:57:27.345Z,11.00
2018-09-03T10:59:57.236Z,10.00
2018-09-03T11:02:28.240Z,9.33
2018-09-03T11:04:59.976Z,9.33
2018-09-03T11:07:29.314Z,10.33
2018-09-03T11:09:59.573Z,11.33
2018-09-03T11:12:29.289Z,10.67
2018-09-03T11:14:58.709Z,11.00
2018-09-03T11:17:29.711Z,11.33
2018-09-03T11:20:01.978Z,13.00
2018-09-03T11:22:34.078Z,10.67
2018-09-03T11:25:03.497Z,11.33
2018-09-03T11:27:36.849Z,11.67
2018-09-03T11:30:07.889Z,11.67
2018-09-03T11:32:41.248Z,11.67
2018-09-03T11:35:11.609Z,10.00
2018-09-03T11:37:43.297Z,10.33
2018-09-03T11:40:14.401Z,10.00
2018-09-03T11:42:44.734Z,11.00
2018-09-03T11:45:17.150Z,10.00
2018-09-03T11:47:47.814Z,11.00
2018-09-03T11:50:17.908Z,10.00
2018-09-03T11:52:50.003Z,11.00
2018-09-03T11:55:19.877Z,11.00
2018-09-03T11:57:51.667Z,11.67
2018-09-03T12:00:26.389Z,11.67
2018-09-03T12:02:59.278Z,10.00
2018-09-03T12:05:30.310Z,12.00
2018-09-03T12:08:04.330Z,11.00
2018-09-03T12:10:35.815Z,11.67
2018-09-03T12:13:05.798Z,10.00
2018-09-03T12:15:40.131Z,13.67
2018-09-03T12:18:11.606Z,11.33
2018-09-03T12:20:41.738Z,11.67
2018-09-03T12:23:11.215Z,15.00
2018-09-03T12:25:40.561Z,11.00
2018-09-03T12:28:09.893Z,10.33
2018-09-03T12:30:40.023Z,11.33
2018-09-03T12:33:09.342Z,10.67
2018-09-03T12:35:38.642Z,11.33
2018-09-03T12:38:07.962Z,11.00
2018-09-03T12:40:44.184Z,14.00
2018-09-03T12:43:16.910Z,10.33
2018-09-03T12:45:51.394Z,12.00
2018-09-03T12:48:21.391Z,10.67
2018-09-03T12:50:54.667Z,12.67
2018-09-03T12:53:26.258Z,14.00
2018-09-03T12:55:57.951Z,12.33
2018-09-03T12:58:29.327Z,12.00
2018-09-03T13:00:59.037Z,12.67
2018-09-03T13:03:28.577Z,12.67
2018-09-03T13:06:04.298Z,10.67
2018-09-03T13:08:34.556Z,12.33
2018-09-03T13:11:05.610Z,11.00
2018-09-03T13:13:36.785Z,12.00
2018-09-03T13:16:06.099Z,12.00
2018-09-03T13:18:36.790Z,9.67
2018-09-03T13:21:12.200Z,11.67
2018-09-03T13:23:41.649Z,9.00
2018-09-03T13:26:12.324Z,12.67
2018-09-03T13:28:42.440Z,11.00
2018-09-03T13:31:13.124Z,11.00
2018-09-03T13:33:46.467Z,10.00
2018-09-03T13:36:18.861Z,12.67
2018-09-03T13:38:48.197Z,14.67
2018-09-03T13:41:18.362Z,13.33
2018-09-03T13:43:49.702Z,14.00
2018-09-03T13:46:19.971Z,12.67
2018-09-03T13:48:49.309Z,13.67
2018-09-03T13:51:18.568Z,10.67
2018-09-03T13:53:48.365Z,12.00
2018-09-03T13:56:17.799Z,11.00
2018-09-03T13:58:48.573Z,10.67
2018-09-03T14:01:19.686Z,11.00
2018-09-03T14:03:50.503Z,11.00
2018-09-03T14:06:22.558Z,12.33
2018-09-03T14:08:52.713Z,11.33
2018-09-03T14:11:23.026Z,11.00
2018-09-03T14:13:53.236Z,10.33
2018-09-03T14:16:23.446Z,11.00
2018-09-03T14:18:53.709Z,15.33
2018-09-03T14:21:24.457Z,11.00
2018-09-03T14:23:55.217Z,13.67
2018-09-03T14:26:25.211Z,11.33
2018-09-03T14:28:55.610Z,12.00
2018-09-03T14:31:25.986Z,9.00
2018-09-03T14:33:55.409Z,12.00
2018-09-03T14:36:27.798Z,11.00
2018-09-03T14:38:58.170Z,12.33
2018-09-03T14:41:28.421Z,13.67
2018-09-03T14:43:59.366Z,11.67
2018-09-03T14:46:29.617Z,15.67
2018-09-03T14:49:01.072Z,12.00
2018-09-03T14:51:32.461Z,11.00
2018-09-03T14:54:03.814Z,11.00
2018-09-03T14:56:36.726Z,12.00
2018-09-03T14:59:07.446Z,11.67
2018-09-03T15:01:38.070Z,12.00
2018-09-03T15:04:08.132Z,12.00
2018-09-03T15:06:40.688Z,11.67
2018-09-03T15:09:15.917Z,11.67
2018-09-03T15:11:47.639Z,11.33
2018-09-03T15:14:18.522Z,12.67
2018-09-03T15:16:49.757Z,11.33
2018-09-03T15:19:21.452Z,12.67
2018-09-03T15:21:54.605Z,12.67
2018-09-03T15:24:26.626Z,13.67
2018-09-03T15:26:58.122Z,10.33
2018-09-03T15:29:28.132Z,12.00
2018-09-03T15:31:59.730Z,13.67
2018-09-03T15:34:29.043Z,13.00
2018-09-03T15:36:59.979Z,11.00
2018-09-03T15:39:32.668Z,13.00
2018-09-03T15:42:02.117Z,11.00
2018-09-03T15:44:31.438Z,11.67
2018-09-03T15:47:01.818Z,13.00
2018-09-03T15:49:32.782Z,11.00
2018-09-03T15:52:08.068Z,12.00
2018-09-03T15:54:37.891Z,11.67
2018-09-03T15:57:07.318Z,13.00
2018-09-03T15:59:36.627Z,12.67
2018-09-03T16:02:07.575Z,12.00
2018-09-03T16:04:38.958Z,11.33
2018-09-03T16:07:09.189Z,12.33
2018-09-03T16:09:39.594Z,12.67
2018-09-03T16:12:10.705Z,13.33
2018-09-03T16:14:40.130Z,10.67
2018-09-03T16:17:09.411Z,13.67
2018-09-03T16:19:40.242Z,11.00
2018-09-03T16:22:11.530Z,12.33
2018-09-03T16:24:40.914Z,11.67
2018-09-03T16:27:10.334Z,11.00
2018-09-03T16:29:40.347Z,11.67
2018-09-03T16:32:09.718Z,12.00
2018-09-03T16:34:44.080Z,10.33
2018-09-03T16:37:16.754Z,9.67
2018-09-03T16:39:46.184Z,9.00
2018-09-03T16:42:16.292Z,10.00
2018-09-03T16:44:48.463Z,8.67
2018-09-03T16:47:19.528Z,8.67
2018-09-03T16:52:19.157Z,10.86
2018-09-03T16:54:49.522Z,10.67
2018-09-03T16:57:21.695Z,11.00
2018-09-03T16:59:52.995Z,11.00
2018-09-03T17:02:23.714Z,10.00
2018-09-03T17:04:54.045Z,9.33
2018-09-03T17:07:24.664Z,10.00
2018-09-03T17:09:54.761Z,10.33
2018-09-03T17:12:26.770Z,9.33
2018-09-03T17:14:56.729Z,10.00
2018-09-03T17:17:27.642Z,9.00
2018-09-03T17:19:58.544Z,8.33
2018-09-03T17:22:30.321Z,10.00
2018-09-03T17:25:01.077Z,10.00
2018-09-03T17:27:31.212Z,10.67
2018-09-03T17:30:00.605Z,8.33
2018-09-03T17:32:30.738Z,9.00
2018-09-03T17:35:01.097Z,11.00
2018-09-03T17:37:30.467Z,9.67
2018-09-03T17:40:00.698Z,10.67
2018-09-03T17:42:31.782Z,9.00
2018-09-03T17:45:02.895Z,8.67
2018-09-03T17:47:33.335Z,9.33
2018-09-03T17:50:02.665Z,10.67
2018-09-03T17:52:31.967Z,8.00
2018-09-03T17:55:01.752Z,9.00
2018-09-03T17:57:32.824Z,10.67
2018-09-03T18:00:03.210Z,8.33
2018-09-03T18:02:33.053Z,8.33
2018-09-03T18:05:03.284Z,8.33
2018-09-03T18:07:34.789Z,10.67
2018-09-03T18:10:05.856Z,8.67
2018-09-03T18:12:35.163Z,9.67
2018-09-03T18:15:05.986Z,9.00
2018-09-03T18:17:35.820Z,9.00
2018-09-03T18:20:05.738Z,9.67
2018-09-03T18:22:37.642Z,11.67
2018-09-03T18:25:08.577Z,10.33
2018-09-03T18:27:38.727Z,10.33
2018-09-03T18:30:09.863Z,11.33
2018-09-03T18:32:39.980Z,11.67
2018-09-03T18:35:09.377Z,11.00
2018-09-03T18:37:42.618Z,9.00
2018-09-03T18:40:11.996Z,11.33
2018-09-03T18:42:42.286Z,11.00
2018-09-03T18:45:14.522Z,10.67
2018-09-03T18:47:45.160Z,11.00
2018-09-03T18:50:15.529Z,9.00
2018-09-03T18:52:45.780Z,12.00
2018-09-03T18:55:15.326Z,9.67
2018-09-03T18:57:46.278Z,11.67
2018-09-03T19:00:17.499Z,11.67
2018-09-03T19:02:51.039Z,10.33
2018-09-03T19:05:24.014Z,11.67
2018-09-03T19:07:57.762Z,11.00
2018-09-03T19:10:28.046Z,9.00
2018-09-03T19:12:57.358Z,8.33
2018-09-03T19:15:26.729Z,9.00
2018-09-03T19:17:56.786Z,10.33
2018-09-03T19:20:26.430Z,8.00
2018-09-03T19:23:00.230Z,9.67
2018-09-03T19:25:29.518Z,12.00
2018-09-03T19:28:09.626Z,11.33
2018-09-03T19:30:40.630Z,9.67
2018-09-03T19:33:11.452Z,9.67
2018-09-03T19:35:43.375Z,9.00
2018-09-03T19:38:17.288Z,11.00
2018-09-03T19:40:47.586Z,11.00
2018-09-03T19:43:19.463Z,11.33
2018-09-03T19:45:53.504Z,11.00
2018-09-03T19:48:24.215Z,10.00
2018-09-03T19:50:53.628Z,12.00
2018-09-03T19:53:23.637Z,9.67
2018-09-03T19:55:53.587Z,10.67
2018-09-03T19:58:25.117Z,11.33
2018-09-03T20:00:55.555Z,11.00
2018-09-03T20:03:25.591Z,11.67
2018-09-03T20:05:55.870Z,10.00
2018-09-03T20:08:25.254Z,11.33
2018-09-03T20:10:55.888Z,10.67
2018-09-03T20:13:26.491Z,10.33
2018-09-03T20:15:55.782Z,12.00
2018-09-03T20:18:26.255Z,12.00
2018-09-03T20:20:58.111Z,9.67
2018-09-03T20:23:30.615Z,9.00
2018-09-03T20:26:01.183Z,10.33
2018-09-03T20:28:31.289Z,11.67
2018-09-03T20:31:00.926Z,12.00
2018-09-03T20:33:32.409Z,12.67
2018-09-03T20:36:03.835Z,12.33
2018-09-03T20:38:34.126Z,11.67
2018-09-03T20:41:05.494Z,10.00
2018-09-03T20:43:39.538Z,11.67
2018-09-03T20:46:16.131Z,13.00
2018-09-03T20:48:47.141Z,12.00
2018-09-03T20:51:19.648Z,12.00
2018-09-03T20:53:49.568Z,13.00
2018-09-03T20:56:18.847Z,13.00
2018-09-03T20:58:50.492Z,11.33
2018-09-03T21:01:19.837Z,13.00
2018-09-03T21:03:50.501Z,13.00
2018-09-03T21:06:22.395Z,14.33
2018-09-03T21:08:52.696Z,12.67
2018-09-03T21:11:22.077Z,12.67
2018-09-03T21:13:51.475Z,12.67
2018-09-03T21:16:20.782Z,12.67
2018-09-03T21:18:51.839Z,13.33
2018-09-03T21:21:21.896Z,12.67
2018-09-03T21:23:51.848Z,13.33
2018-09-03T21:26:21.341Z,14.00
2018-09-03T21:28:50.690Z,15.67
2018-09-03T21:31:20.634Z,15.67
2018-09-03T21:33:49.961Z,15.33
2018-09-03T21:36:19.923Z,16.00
2018-09-03T21:38:49.291Z,13.33
2018-09-03T21:41:18.716Z,13.00
2018-09-03T21:43:49.128Z,16.00
2018-09-03T21:46:18.478Z,15.33
2018-09-03T21:48:49.217Z,15.67
2018-09-03T21:51:22.342Z,16.33
2018-09-03T21:53:52.924Z,17.00
2018-09-03T21:56:22.286Z,17.33
2018-09-03T21:58:51.685Z,16.33
2018-09-03T22:01:24.677Z,16.67
2018-09-03T22:03:54.079Z,18.00
2018-09-03T22:06:24.819Z,18.67
2018-09-03T22:08:54.178Z,16.67
2018-09-03T22:11:27.841Z,18.00
2018-09-03T22:13:57.457Z,16.33
2018-09-03T22:16:28.074Z,19.67
2018-09-03T22:18:57.605Z,16.67
2018-09-03T22:21:27.907Z,17.00
2018-09-03T22:23:57.286Z,17.00
2018-09-03T22:26:27.321Z,18.00
2018-09-03T22:28:57.346Z,19.00
2018-09-03T22:31:27.908Z,15.33
2018-09-03T22:33:58.135Z,17.00
2018-09-03T22:36:28.361Z,16.67
2018-09-03T22:38:58.404Z,16.33
2018-09-03T22:41:27.807Z,14.00
2018-09-03T22:43:58.047Z,18.67
2018-09-03T22:46:27.657Z,17.33
2018-09-03T22:48:57.598Z,16.33
2018-09-03T22:51:30.806Z,17.67
2018-09-03T22:54:00.142Z,18.00
2018-09-03T22:56:31.434Z,17.00
2018-09-03T22:59:01.607Z,15.67
2018-09-03T23:01:31.809Z,18.00
2018-09-03T23:04:01.789Z,15.33
2018-09-03T23:06:31.262Z,15.67
2018-09-03T23:09:01.441Z,17.00
2018-09-03T23:11:31.102Z,16.33
2018-09-03T23:14:01.051Z,17.00
2018-09-03T23:16:31.654Z,17.00
2018-09-03T23:19:01.308Z,19.00
2018-09-03T23:21:30.881Z,19.00
2018-09-03T23:24:02.839Z,17.33
2018-09-03T23:26:32.198Z,17.67
2018-09-03T23:29:03.119Z,16.33
2018-09-03T23:31:33.094Z,15.67
2018-09-03T23:34:06.103Z,14.33
2018-09-03T23:36:36.369Z,15.00
2018-09-03T23:39:07.287Z,14.67
2018-09-03T23:44:07.278Z,16.67
2018-09-03T23:46:36.798Z,17.00
2018-09-03T23:49:06.288Z,15.67
2018-09-03T23:51:36.731Z,16.00
2018-09-03T23:54:06.746Z,17.67
2018-09-03T23:56:37.368Z,18.67
2018-09-03T23:59:07.449Z,17.00
